Time;durP1;ratioP1;P1;durP2;ratioP2;P2;SDS_P1;SDS_P2;PMS_P1;PMS_P2;Temp;Humidity;BMP_temperature;BMP_pressure;BME280_temperature;BME280_humidity;BME280_pressure;Samples;Min_cycle;Max_cycle;Signal;HPM_P1;HPM_P2
2021/11/27 00:00:42;;;;;;;1.30;1.10;;;17.30;58.70;;;;;;5053161;28;20584;-61
2021/11/27 00:03:07;;;;;;;1.48;1.00;;;17.30;58.60;;;;;;5053256;28;20175;-61
2021/11/27 00:05:34;;;;;;;0.90;0.90;;;17.30;58.70;;;;;;5052499;28;20179;-60
2021/11/27 00:08:00;;;;;;;1.30;1.20;;;17.30;58.80;;;;;;5053443;28;20549;-60
2021/11/27 00:10:27;;;;;;;1.58;1.20;;;17.30;58.70;;;;;;5053355;28;20641;-61
2021/11/27 00:12:52;;;;;;;1.80;0.93;;;17.30;58.80;;;;;;5052287;28;20229;-62
2021/11/27 00:15:18;;;;;;;1.13;1.10;;;17.30;58.80;;;;;;5053004;28;20199;-62
2021/11/27 00:17:44;;;;;;;1.25;1.15;;;17.20;58.70;;;;;;5052824;28;20217;-62
2021/11/27 00:20:12;;;;;;;1.30;1.20;;;17.20;58.60;;;;;;5052738;28;20220;-60
2021/11/27 00:22:38;;;;;;;1.35;0.90;;;17.20;58.70;;;;;;5052983;28;20240;-61
2021/11/27 00:25:04;;;;;;;1.52;1.10;;;17.20;58.70;;;;;;5053205;28;20254;-60
2021/11/27 00:27:29;;;;;;;0.88;0.88;;;17.20;58.70;;;;;;5052066;28;20269;-62
2021/11/27 00:29:55;;;;;;;1.10;1.00;;;17.20;58.70;;;;;;5052932;28;20342;-61
2021/11/27 00:32:21;;;;;;;1.17;1.08;;;17.20;58.70;;;;;;5052023;28;20175;-61
2021/11/27 00:34:47;;;;;;;1.33;1.23;;;17.10;58.70;;;;;;5051982;28;20178;-61
2021/11/27 00:37:12;;;;;;;1.23;1.13;;;17.10;58.60;;;;;;5052883;28;20187;-60
2021/11/27 00:39:38;;;;;;;1.20;1.10;;;17.10;59.30;;;;;;5052566;28;20175;-61
2021/11/27 00:42:03;;;;;;;1.58;1.48;;;17.10;58.70;;;;;;5052199;28;20195;-61
2021/11/27 00:44:29;;;;;;;1.30;1.20;;;17.10;58.70;;;;;;5052305;28;20273;-61
2021/11/27 00:46:54;;;;;;;1.23;1.13;;;17.10;58.70;;;;;;5052314;28;20186;-60
2021/11/27 00:49:20;;;;;;;1.45;1.35;;;17.10;58.60;;;;;;5052158;28;20195;-60
2021/11/27 00:51:46;;;;;;;1.10;1.00;;;17.10;58.60;;;;;;5052174;28;20183;-61
2021/11/27 00:54:11;;;;;;;1.70;1.20;;;17.10;58.70;;;;;;5052729;28;20183;-62
2021/11/27 00:56:37;;;;;;;1.15;1.05;;;17.10;58.70;;;;;;5051462;28;20207;-62
2021/11/27 00:59:02;;;;;;;1.63;1.50;;;17.00;58.60;;;;;;5052320;28;20564;-61
2021/11/27 01:01:30;;;;;;;1.38;1.08;;;17.00;58.60;;;;;;5051618;28;20178;-60
2021/11/27 01:03:55;;;;;;;1.30;1.20;;;17.00;58.60;;;;;;5052450;28;20252;-61
2021/11/27 01:06:22;;;;;;;1.40;1.10;;;17.00;58.60;;;;;;5052362;28;20626;-60
2021/11/27 01:08:49;;;;;;;0.85;0.85;;;17.00;58.60;;;;;;5051431;28;20233;-60
2021/11/27 01:11:16;;;;;;;1.10;1.10;;;17.00;58.60;;;;;;5052235;28;20602;-61
2021/11/27 01:13:44;;;;;;;1.30;1.00;;;17.00;58.60;;;;;;5051923;28;20189;-61
2021/11/27 01:16:10;;;;;;;1.23;1.13;;;16.90;58.60;;;;;;5051368;28;20294;-60
2021/11/27 01:18:35;;;;;;;1.20;1.02;;;17.00;58.60;;;;;;5051844;28;20634;-61
2021/11/27 01:21:03;;;;;;;1.00;1.00;;;16.90;58.60;;;;;;5052132;28;20186;-60
2021/11/27 01:23:29;;;;;;;1.58;1.48;;;16.90;58.50;;;;;;5051045;28;20254;-59
2021/11/27 01:25:54;;;;;;;1.20;1.10;;;16.90;58.50;;;;;;5052119;28;20261;-61
2021/11/27 01:28:20;;;;;;;1.02;1.02;;;16.90;58.60;;;;;;5051951;28;20175;-61
2021/11/27 01:30:48;;;;;;;1.15;1.10;;;16.90;58.60;;;;;;5050758;28;20586;-61
2021/11/27 01:33:13;;;;;;;1.90;1.30;;;16.90;58.70;;;;;;5051795;28;20614;-61
2021/11/27 01:35:39;;;;;;;2.03;1.10;;;16.90;58.60;;;;;;5051523;28;20221;-59
2021/11/27 01:38:06;;;;;;;1.33;1.23;;;16.80;58.60;;;;;;5051238;28;20187;-61
2021/11/27 01:40:32;;;;;;;1.08;1.08;;;16.90;58.70;;;;;;5051533;28;20182;-61
2021/11/27 01:42:57;;;;;;;1.20;1.10;;;16.80;58.60;;;;;;5051456;28;20171;-60
2021/11/27 01:45:23;;;;;;;1.58;1.40;;;16.80;58.70;;;;;;5050962;28;20523;-60
2021/11/27 01:48:16;;;;;;;1.10;1.02;;;16.80;58.60;;;;;;5051154;28;20800;-60
2021/11/27 01:51:12;;;;;;;0.80;0.80;;;16.80;58.70;;;;;;5049480;28;20201;-60
2021/11/27 01:53:40;;;;;;;1.00;1.00;;;16.80;58.70;;;;;;5051167;28;20569;-61
2021/11/27 01:56:08;;;;;;;1.20;1.10;;;16.80;58.60;;;;;;5051470;28;20700;-61
2021/11/27 01:58:33;;;;;;;1.00;0.90;;;16.80;58.70;;;;;;5050729;28;20606;-63
2021/11/27 02:01:03;;;;;;;0.82;0.82;;;16.80;58.70;;;;;;5051766;28;20190;-61
2021/11/27 02:03:28;;;;;;;0.98;0.98;;;16.80;58.70;;;;;;5051358;28;20629;-61
2021/11/27 02:05:54;;;;;;;0.80;0.80;;;16.80;58.70;;;;;;5050740;28;20179;-60
2021/11/27 02:08:20;;;;;;;0.93;0.90;;;16.70;58.70;;;;;;5051696;28;20198;-60
2021/11/27 02:10:45;;;;;;;1.10;1.00;;;16.70;58.70;;;;;;5051358;28;20175;-61
2021/11/27 02:13:11;;;;;;;0.98;0.98;;;16.70;58.70;;;;;;5051040;28;20602;-61
2021/11/27 02:15:37;;;;;;;1.10;0.95;;;16.70;58.70;;;;;;5051282;28;20243;-61
2021/11/27 02:18:02;;;;;;;1.25;1.00;;;16.70;58.80;;;;;;5051477;28;20254;-61
2021/11/27 02:20:32;;;;;;;0.82;0.82;;;16.70;58.80;;;;;;5050584;28;20273;-61
2021/11/27 02:22:57;;;;;;;0.80;0.80;;;16.70;58.80;;;;;;5051659;28;20179;-61
2021/11/27 02:25:23;;;;;;;1.33;1.00;;;16.70;58.80;;;;;;5051242;28;20237;-60
2021/11/27 02:27:50;;;;;;;0.80;0.80;;;16.70;58.80;;;;;;5050528;28;20585;-61
2021/11/27 02:30:16;;;;;;;0.80;0.75;;;16.70;58.80;;;;;;5051423;28;20260;-61
2021/11/27 02:32:43;;;;;;;0.88;0.88;;;16.60;58.80;;;;;;5050634;28;20229;-60
2021/11/27 02:35:09;;;;;;;1.52;1.38;;;16.60;58.80;;;;;;5050995;28;20654;-60
2021/11/27 02:37:35;;;;;;;0.85;0.85;;;16.60;58.80;;;;;;5050774;28;20587;-61
2021/11/27 02:40:01;;;;;;;0.80;0.80;;;16.60;58.80;;;;;;5050442;28;20179;-61
2021/11/27 02:42:26;;;;;;;0.80;0.80;;;16.60;58.70;;;;;;5051352;28;20218;-62
2021/11/27 02:44:52;;;;;;;1.25;1.00;;;16.60;58.80;;;;;;5050824;28;20255;-62
2021/11/27 02:47:18;;;;;;;0.93;0.93;;;16.60;58.80;;;;;;5050310;28;20223;-61
2021/11/27 02:49:43;;;;;;;0.82;0.82;;;16.60;58.80;;;;;;5050731;28;20167;-60
2021/11/27 02:52:09;;;;;;;0.93;0.93;;;16.60;58.90;;;;;;5050966;28;20182;-61
2021/11/27 02:54:34;;;;;;;1.00;1.00;;;16.60;58.80;;;;;;5050171;28;20175;-61
2021/11/27 02:57:00;;;;;;;1.17;0.90;;;16.50;58.80;;;;;;5054806;28;20219;-62
2021/11/27 02:59:27;;;;;;;0.90;0.90;;;16.50;58.80;;;;;;5054743;28;20179;-62
2021/11/27 03:01:56;;;;;;;0.70;0.70;;;16.50;58.80;;;;;;5053524;28;20545;-62
2021/11/27 03:04:22;;;;;;;1.25;0.90;;;16.50;58.80;;;;;;5054459;28;20185;-61
2021/11/27 03:06:47;;;;;;;0.80;0.80;;;16.50;58.80;;;;;;5054389;28;20258;-61
2021/11/27 03:09:16;;;;;;;0.90;0.90;;;16.50;58.80;;;;;;5053868;28;20274;-61
2021/11/27 03:11:42;;;;;;;0.82;0.80;;;16.50;58.90;;;;;;5054039;28;20550;-62
2021/11/27 03:14:07;;;;;;;0.95;0.90;;;16.50;58.80;;;;;;5054576;28;20175;-61
2021/11/27 03:16:33;;;;;;;0.70;0.70;;;16.50;58.80;;;;;;5053390;28;20206;-62
2021/11/27 03:18:59;;;;;;;0.88;0.88;;;16.50;58.90;;;;;;5054371;28;20640;-61
2021/11/27 03:21:25;;;;;;;0.80;0.80;;;16.50;58.90;;;;;;5054585;28;20203;-61
2021/11/27 03:23:50;;;;;;;1.02;0.90;;;16.40;58.80;;;;;;5053321;28;20706;-61
2021/11/27 03:26:16;;;;;;;0.70;0.70;;;16.40;58.80;;;;;;5054294;28;20629;-62
2021/11/27 03:28:42;;;;;;;0.85;0.85;;;16.40;58.80;;;;;;5053977;28;20266;-61
2021/11/27 03:31:08;;;;;;;0.80;0.80;;;16.40;58.80;;;;;;5053603;28;20179;-61
2021/11/27 03:33:33;;;;;;;0.57;0.57;;;16.40;58.90;;;;;;5053694;28;20171;-61
2021/11/27 03:35:59;;;;;;;0.68;0.68;;;16.40;58.90;;;;;;5053539;28;20670;-61
2021/11/27 03:38:24;;;;;;;0.90;0.90;;;16.40;58.90;;;;;;5053673;28;20629;-61
2021/11/27 03:40:50;;;;;;;0.60;0.60;;;16.40;58.90;;;;;;5053796;28;20232;-62
2021/11/27 03:43:16;;;;;;;0.70;0.70;;;16.40;58.90;;;;;;5053460;28;20214;-61
2021/11/27 03:45:41;;;;;;;0.70;0.70;;;16.40;58.90;;;;;;5053657;28;20183;-61
2021/11/27 03:48:12;;;;;;;0.73;0.70;;;16.40;58.90;;;;;;5053633;28;20218;-61
2021/11/27 03:50:47;;;;;;;1.35;1.13;;;16.30;58.80;;;;;;5052935;28;20199;-62
2021/11/27 03:53:17;;;;;;;0.82;0.82;;;16.40;58.90;;;;;;5053911;28;20191;-61
2021/11/27 03:55:43;;;;;;;0.80;0.80;;;16.30;58.90;;;;;;5053333;28;20292;-62
2021/11/27 03:58:08;;;;;;;0.60;0.60;;;16.30;58.90;;;;;;5052952;28;20250;-62
2021/11/27 04:00:34;;;;;;;0.80;0.80;;;16.30;58.90;;;;;;5053050;28;20167;-63
2021/11/27 04:02:59;;;;;;;0.80;0.80;;;16.30;59.00;;;;;;5053645;28;20213;-62
2021/11/27 04:05:25;;;;;;;0.75;0.75;;;16.30;58.90;;;;;;5053062;28;20180;-61
2021/11/27 04:07:54;;;;;;;0.68;0.60;;;16.30;58.90;;;;;;5051829;28;20163;-61
2021/11/27 04:10:19;;;;;;;0.60;0.60;;;16.30;58.90;;;;;;5052114;28;20216;-62
2021/11/27 04:12:45;;;;;;;0.60;0.60;;;16.30;58.90;;;;;;5052195;28;20254;-63
2021/11/27 04:15:13;;;;;;;0.70;0.70;;;16.30;58.90;;;;;;5052974;28;20171;-62
2021/11/27 04:17:38;;;;;;;0.88;0.75;;;16.30;58.90;;;;;;5053084;28;20175;-62
2021/11/27 04:20:04;;;;;;;0.77;0.77;;;16.30;58.90;;;;;;5052438;28;20535;-62
2021/11/27 04:22:29;;;;;;;0.50;0.50;;;16.20;58.90;;;;;;5052798;28;20523;-62
2021/11/27 04:24:55;;;;;;;0.50;0.50;;;16.20;58.80;;;;;;5052907;28;20544;-61
2021/11/27 04:27:20;;;;;;;0.85;0.63;;;16.20;58.80;;;;;;5052039;28;20183;-62
2021/11/27 04:29:46;;;;;;;0.60;0.60;;;16.20;58.80;;;;;;5052561;28;20183;-61
2021/11/27 04:32:11;;;;;;;0.93;0.80;;;16.20;58.90;;;;;;5053046;28;20171;-62
2021/11/27 04:34:37;;;;;;;0.73;0.57;;;16.20;58.80;;;;;;5051845;28;20201;-62
2021/11/27 04:37:03;;;;;;;0.70;0.70;;;16.20;58.80;;;;;;5052629;28;20210;-62
2021/11/27 04:39:28;;;;;;;0.57;0.57;;;16.20;58.80;;;;;;5051988;28;20202;-61
2021/11/27 04:41:54;;;;;;;0.57;0.57;;;16.20;58.80;;;;;;5052681;28;20614;-62
2021/11/27 04:44:19;;;;;;;0.70;0.70;;;16.20;58.80;;;;;;5052432;28;20186;-61
2021/11/27 04:46:45;;;;;;;0.50;0.50;;;16.10;58.80;;;;;;5051578;28;20222;-62
2021/11/27 04:49:10;;;;;;;0.60;0.60;;;16.10;58.80;;;;;;5052214;28;20234;-61
2021/11/27 04:51:36;;;;;;;1.38;0.68;;;16.10;58.80;;;;;;5052151;28;20175;-61
2021/11/27 04:54:01;;;;;;;0.73;0.73;;;16.10;58.80;;;;;;5051626;28;20229;-62
2021/11/27 04:56:27;;;;;;;0.80;0.80;;;16.10;58.80;;;;;;5052345;28;20685;-62
2021/11/27 04:58:52;;;;;;;0.60;0.60;;;16.10;58.80;;;;;;5051916;28;20718;-63
2021/11/27 05:01:18;;;;;;;0.65;0.65;;;16.10;58.80;;;;;;5051452;28;20696;-62
2021/11/27 05:03:44;;;;;;;0.63;0.60;;;16.10;58.80;;;;;;5052076;28;20232;-62
2021/11/27 05:06:09;;;;;;;0.50;0.50;;;16.10;58.80;;;;;;5052319;28;20182;-61
2021/11/27 05:08:35;;;;;;;0.73;0.73;;;16.10;58.80;;;;;;5051310;28;20255;-61
2021/11/27 05:11:00;;;;;;;0.82;0.80;;;16.10;58.80;;;;;;5052217;28;20237;-61
2021/11/27 05:13:26;;;;;;;0.70;0.70;;;16.10;58.80;;;;;;5051867;28;20264;-61
2021/11/27 05:15:51;;;;;;;0.60;0.60;;;16.00;58.80;;;;;;5051122;28;20246;-61
2021/11/27 05:18:17;;;;;;;0.60;0.60;;;16.00;58.70;;;;;;5051781;28;20163;-61
2021/11/27 05:20:42;;;;;;;0.98;0.60;;;16.00;58.70;;;;;;5051807;28;20501;-61
2021/11/27 05:23:08;;;;;;;0.77;0.68;;;16.00;58.50;;;;;;5051349;28;20262;-61
2021/11/27 05:25:34;;;;;;;0.50;0.50;;;16.10;58.50;;;;;;5051594;28;20167;-61
2021/11/27 05:27:59;;;;;;;0.68;0.68;;;16.00;58.40;;;;;;5051695;28;20183;-60
2021/11/27 05:30:27;;;;;;;0.70;0.70;;;16.00;58.50;;;;;;5051279;28;20243;-62
2021/11/27 05:35:24;;;;;;;0.50;0.50;;;16.00;58.60;;;;;;5052215;28;20238;-62
2021/11/27 05:37:49;;;;;;;0.68;0.68;;;16.00;58.60;;;;;;5050787;28;20221;-64
2021/11/27 05:40:15;;;;;;;0.50;0.50;;;15.90;58.50;;;;;;5050269;28;20229;-60
2021/11/27 05:42:43;;;;;;;0.70;0.60;;;16.00;58.60;;;;;;5050574;28;20181;-61
2021/11/27 05:45:08;;;;;;;0.50;0.50;;;16.00;58.50;;;;;;5051846;28;20538;-60
2021/11/27 05:47:34;;;;;;;0.65;0.60;;;15.90;58.40;;;;;;5051184;28;20681;-60
2021/11/27 05:49:59;;;;;;;0.47;0.47;;;15.90;58.50;;;;;;5051017;28;20179;-60
2021/11/27 05:52:28;;;;;;;0.60;0.60;;;15.90;58.40;;;;;;5051926;28;20217;-60
2021/11/27 05:54:56;;;;;;;0.50;0.50;;;15.90;58.30;;;;;;5051635;28;20262;-60
2021/11/27 05:57:21;;;;;;;0.63;0.60;;;15.90;58.40;;;;;;5050546;28;20705;-61
2021/11/27 05:59:47;;;;;;;0.68;0.50;;;15.90;58.20;;;;;;5051110;28;20175;-61
2021/11/27 06:02:13;;;;;;;0.60;0.60;;;15.90;58.20;;;;;;5051401;28;20672;-61
2021/11/27 06:04:38;;;;;;;1.08;0.50;;;15.90;58.20;;;;;;5050365;28;20179;-61
2021/11/27 06:07:04;;;;;;;0.80;0.40;;;15.90;58.30;;;;;;5051532;28;20225;-60
2021/11/27 06:09:29;;;;;;;0.50;0.50;;;15.90;58.30;;;;;;5051312;28;20167;-60
2021/11/27 06:11:55;;;;;;;0.73;0.60;;;15.90;58.30;;;;;;5050636;28;20240;-61
2021/11/27 06:14:20;;;;;;;0.68;0.68;;;15.80;58.20;;;;;;5051278;28;20180;-61
2021/11/27 06:16:46;;;;;;;0.47;0.47;;;15.90;58.20;;;;;;5051173;28;20613;-61
2021/11/27 06:19:12;;;;;;;0.65;0.50;;;15.80;58.20;;;;;;5050701;28;20691;-61
2021/11/27 06:21:37;;;;;;;0.40;0.40;;;15.80;58.80;;;;;;5051229;28;20227;-61
2021/11/27 06:24:03;;;;;;;0.40;0.40;;;15.80;58.10;;;;;;5051430;28;20528;-61
2021/11/27 06:26:28;;;;;;;0.50;0.50;;;15.80;58.10;;;;;;5050358;28;20241;-62
2021/11/27 06:28:54;;;;;;;0.40;0.40;;;15.80;58.10;;;;;;5051630;28;20278;-61
2021/11/27 06:31:19;;;;;;;0.43;0.43;;;15.80;58.00;;;;;;5054245;28;20619;-61
2021/11/27 06:33:45;;;;;;;0.45;0.45;;;15.80;58.20;;;;;;5054374;28;20186;-61
2021/11/27 06:36:10;;;;;;;0.30;0.30;;;15.80;58.10;;;;;;5055165;28;20218;-60
2021/11/27 06:38:36;;;;;;;0.50;0.50;;;15.80;58.10;;;;;;5054820;28;20544;-61
2021/11/27 06:41:02;;;;;;;0.50;0.40;;;15.80;58.30;;;;;;5054216;28;20656;-60
2021/11/27 06:43:27;;;;;;;0.60;0.60;;;15.70;58.30;;;;;;5054999;28;20635;-63
2021/11/27 06:45:53;;;;;;;0.47;0.47;;;15.70;58.30;;;;;;5054404;28;20179;-60
2021/11/27 06:48:18;;;;;;;0.40;0.40;;;15.70;58.20;;;;;;5054464;28;20219;-60
2021/11/27 06:50:44;;;;;;;0.85;0.63;;;15.80;58.10;;;;;;5054612;28;20179;-61
2021/11/27 06:53:10;;;;;;;0.50;0.50;;;15.70;58.20;;;;;;5054169;28;20301;-60
2021/11/27 06:55:35;;;;;;;0.40;0.40;;;15.70;58.10;;;;;;5054599;28;20191;-61
2021/11/27 06:58:01;;;;;;;0.60;0.60;;;15.70;58.10;;;;;;5054908;28;20175;-63
2021/11/27 07:00:26;;;;;;;0.40;0.40;;;15.70;58.40;;;;;;5054118;28;20316;-62
2021/11/27 07:02:52;;;;;;;0.40;0.40;;;15.70;58.20;;;;;;5054145;28;20477;-61
2021/11/27 07:05:17;;;;;;;0.50;0.50;;;15.70;58.10;;;;;;5054480;28;20182;-59
2021/11/27 07:07:43;;;;;;;0.32;0.32;;;15.80;58.30;;;;;;5053566;28;20179;-60
2021/11/27 07:10:09;;;;;;;0.40;0.40;;;15.80;58.40;;;;;;5054338;28;20167;-60
2021/11/27 07:12:34;;;;;;;0.63;0.63;;;15.90;58.40;;;;;;5054311;28;20179;-61
2021/11/27 07:15:03;;;;;;;0.60;0.40;;;16.10;58.40;;;;;;5053790;28;20175;-62
2021/11/27 07:17:30;;;;;;;0.50;0.50;;;16.30;58.20;;;;;;5054114;28;20175;-60
2021/11/27 07:19:57;;;;;;;0.47;0.43;;;16.40;57.90;;;;;;5054325;28;20579;-60
2021/11/27 07:22:22;;;;;;;0.40;0.40;;;16.60;57.60;;;;;;5053644;28;20563;-61
2021/11/27 07:24:54;;;;;;;0.95;0.65;;;16.80;57.40;;;;;;5053988;28;20699;-60
2021/11/27 07:27:20;;;;;;;0.30;0.30;;;16.90;57.10;;;;;;5054772;28;20258;-61
2021/11/27 07:29:45;;;;;;;0.40;0.40;;;17.10;56.90;;;;;;5053149;28;20266;-61
2021/11/27 07:32:11;;;;;;;0.65;0.65;;;17.20;56.70;;;;;;5054087;28;20622;-61
2021/11/27 07:34:36;;;;;;;0.40;0.40;;;17.40;56.40;;;;;;5053885;28;20665;-61
2021/11/27 07:37:02;;;;;;;0.50;0.50;;;17.80;55.80;;;;;;5053196;28;20610;-60
2021/11/27 07:39:28;;;;;;;0.38;0.35;;;18.00;55.30;;;;;;5053998;28;20171;-60
2021/11/27 07:41:53;;;;;;;0.40;0.40;;;18.20;54.80;;;;;;5053796;28;20186;-60
2021/11/27 07:44:19;;;;;;;0.52;0.30;;;18.40;54.60;;;;;;5053314;28;20167;-61
2021/11/27 07:46:52;;;;;;;0.60;0.40;;;18.50;54.50;;;;;;5053954;28;20195;-60
2021/11/27 07:49:21;;;;;;;0.40;0.40;;;18.60;54.30;;;;;;5052986;28;20316;-59
2021/11/27 07:51:47;;;;;;;0.40;0.40;;;18.70;54.10;;;;;;5053524;28;20207;-60
2021/11/27 07:54:12;;;;;;;0.30;0.30;;;18.70;54.10;;;;;;5053828;28;20228;-61
2021/11/27 07:56:38;;;;;;;0.40;0.40;;;18.70;54.20;;;;;;5052629;28;20206;-62
2021/11/27 07:59:04;;;;;;;0.30;0.30;;;18.70;54.20;;;;;;5053622;28;20171;-60
2021/11/27 08:01:30;;;;;;;1.30;0.50;;;18.70;54.20;;;;;;5053273;28;20181;-67
2021/11/27 08:03:56;;;;;;;1.17;0.30;;;18.70;54.40;;;;;;5052588;28;20179;-68
2021/11/27 08:06:21;;;;;;;0.30;0.30;;;18.70;54.40;;;;;;5053670;28;20186;-68
2021/11/27 08:08:47;;;;;;;0.47;0.40;;;18.60;54.50;;;;;;5052900;28;20171;-68
2021/11/27 08:11:12;;;;;;;0.40;0.40;;;18.50;54.60;;;;;;5052793;28;20229;-67
2021/11/27 08:13:40;;;;;;;1.08;0.50;;;18.40;54.90;;;;;;5053143;28;20190;-66
2021/11/27 08:16:05;;;;;;;1.15;0.50;;;18.30;55.00;;;;;;5053164;28;20203;-67
2021/11/27 08:18:31;;;;;;;0.30;0.30;;;18.30;55.20;;;;;;5052230;28;20166;-67
2021/11/27 08:20:57;;;;;;;0.30;0.30;;;18.30;55.20;;;;;;5052990;28;20178;-66
2021/11/27 08:23:22;;;;;;;0.30;0.30;;;18.30;55.10;;;;;;5053225;28;20178;-66
2021/11/27 08:25:48;;;;;;;0.35;0.35;;;18.40;55.10;;;;;;5052116;28;20361;-66
2021/11/27 08:28:13;;;;;;;0.43;0.43;;;18.40;55.00;;;;;;5053201;28;20254;-66
2021/11/27 08:30:39;;;;;;;0.32;0.32;;;18.40;55.00;;;;;;5052704;28;20266;-69
2021/11/27 08:33:04;;;;;;;0.30;0.30;;;18.40;55.00;;;;;;5052066;28;20292;-67
2021/11/27 08:35:30;;;;;;;0.40;0.40;;;18.40;54.90;;;;;;5052224;28;20287;-67
2021/11/27 08:37:55;;;;;;;0.50;0.50;;;18.50;55.00;;;;;;5052666;28;20179;-67
2021/11/27 08:40:21;;;;;;;0.43;0.43;;;18.50;55.00;;;;;;5052101;28;20174;-66
2021/11/27 08:42:49;;;;;;;1.05;0.40;;;18.50;55.00;;;;;;5052602;28;20178;-66
2021/11/27 08:45:15;;;;;;;0.90;0.60;;;18.50;55.10;;;;;;5052368;28;20329;-65
2021/11/27 08:47:41;;;;;;;0.90;0.60;;;18.50;55.30;;;;;;5051407;28;20322;-66
2021/11/27 08:50:07;;;;;;;4.55;0.98;;;18.50;55.50;;;;;;5052429;28;20603;-67
2021/11/27 08:52:32;;;;;;;2.00;0.90;;;18.40;55.60;;;;;;5051147;28;20515;-65
2021/11/27 08:54:58;;;;;;;0.80;0.80;;;18.40;55.50;;;;;;5052583;28;20687;-66
2021/11/27 08:57:23;;;;;;;0.68;0.68;;;18.40;55.60;;;;;;5052415;28;20775;-66
2021/11/27 08:59:49;;;;;;;3.03;1.05;;;18.40;55.60;;;;;;5051508;28;20265;-67
2021/11/27 09:02:15;;;;;;;0.90;0.80;;;18.40;55.60;;;;;;5052278;28;20534;-68
2021/11/27 09:04:44;;;;;;;3.38;0.80;;;18.40;55.60;;;;;;5052279;28;20183;-67
2021/11/27 09:07:12;;;;;;;2.67;0.60;;;18.40;55.70;;;;;;5051821;28;20198;-66
2021/11/27 09:09:38;;;;;;;1.85;0.90;;;18.40;55.70;;;;;;5052022;28;20627;-65
2021/11/27 09:12:04;;;;;;;2.55;0.88;;;18.40;55.70;;;;;;5052283;28;20275;-66
2021/11/27 09:14:29;;;;;;;0.80;0.75;;;18.40;55.70;;;;;;5051288;28;20182;-65
2021/11/27 09:16:55;;;;;;;1.40;0.90;;;18.40;55.70;;;;;;5052100;28;20674;-65
2021/11/27 09:19:20;;;;;;;1.08;0.70;;;18.40;55.70;;;;;;5052025;28;20182;-65
2021/11/27 09:21:46;;;;;;;0.77;0.68;;;18.40;55.60;;;;;;5051394;28;20347;-66
2021/11/27 09:24:12;;;;;;;1.10;0.80;;;18.40;55.70;;;;;;5052294;28;20168;-66
2021/11/27 09:26:38;;;;;;;1.80;1.05;;;18.50;55.70;;;;;;5051760;28;20183;-65
2021/11/27 09:29:05;;;;;;;1.08;0.60;;;18.50;55.70;;;;;;5051352;28;20171;-66
2021/11/27 09:31:31;;;;;;;1.00;0.93;;;18.40;55.60;;;;;;5051740;28;20191;-66
2021/11/27 09:33:56;;;;;;;0.70;0.70;;;18.40;55.70;;;;;;5051702;28;20514;-67
2021/11/27 09:36:23;;;;;;;0.95;0.60;;;18.40;55.70;;;;;;5051367;28;20611;-67
2021/11/27 09:38:49;;;;;;;0.40;0.40;;;18.40;55.50;;;;;;5051809;28;20531;-70
2021/11/27 09:41:20;;;;;;;0.80;0.63;;;18.50;55.60;;;;;;5051732;28;20187;-67
2021/11/27 09:43:47;;;;;;;0.73;0.60;;;18.50;55.60;;;;;;5051085;28;20262;-70
2021/11/27 09:46:13;;;;;;;4.65;1.20;;;18.50;55.50;;;;;;5051792;28;20193;-67
2021/11/27 09:48:42;;;;;;;0.75;0.70;;;18.50;55.50;;;;;;5051266;28;20734;-67
2021/11/27 09:51:10;;;;;;;0.90;0.85;;;18.60;55.40;;;;;;5049592;28;20178;-66
2021/11/27 09:53:36;;;;;;;1.80;0.90;;;18.60;55.50;;;;;;5051383;28;20171;-65
2021/11/27 09:56:02;;;;;;;2.20;0.90;;;18.60;55.50;;;;;;5050950;28;20637;-67
2021/11/27 09:58:28;;;;;;;1.42;0.68;;;18.60;55.60;;;;;;5051962;28;20181;-68
2021/11/27 10:00:54;;;;;;;1.42;0.60;;;18.60;55.70;;;;;;5051597;28;20171;-67
2021/11/27 10:03:19;;;;;;;2.92;0.90;;;18.60;55.70;;;;;;5050815;28;20630;-67
2021/11/27 10:05:46;;;;;;;0.85;0.70;;;18.60;55.70;;;;;;5053625;28;20178;-67
2021/11/27 10:08:12;;;;;;;1.48;0.80;;;18.60;55.80;;;;;;5054332;28;20183;-66
2021/11/27 10:10:38;;;;;;;1.33;0.80;;;18.50;55.90;;;;;;5054445;28;20594;-65
2021/11/27 10:13:04;;;;;;;1.67;0.88;;;18.50;56.00;;;;;;5055565;28;20217;-66
2021/11/27 10:15:29;;;;;;;1.05;0.80;;;18.40;56.00;;;;;;5053742;28;20604;-65
2021/11/27 10:17:55;;;;;;;0.88;0.75;;;18.40;56.30;;;;;;5054439;28;20711;-65
2021/11/27 10:20:20;;;;;;;3.15;0.70;;;18.40;56.30;;;;;;5055300;28;20194;-66
2021/11/27 10:22:48;;;;;;;0.60;0.60;;;18.30;56.60;;;;;;5055028;28;20179;-65
2021/11/27 10:25:28;;;;;;;0.95;0.70;;;18.30;56.70;;;;;;5054691;28;20186;-65
2021/11/27 10:28:07;;;;;;;0.65;0.65;;;18.20;56.80;;;;;;5055312;28;20174;-65
2021/11/27 10:31:02;;;;;;;1.75;0.80;;;18.10;56.90;;;;;;5055094;28;20246;-64
2021/11/27 10:33:29;;;;;;;1.15;0.52;;;18.10;57.00;;;;;;5054553;28;20191;-67
2021/11/27 10:36:00;;;;;;;1.10;0.70;;;18.10;57.10;;;;;;5053724;28;20217;-73
2021/11/27 10:38:40;;;;;;;5.13;1.20;;;18.10;57.10;;;;;;5054518;28;20250;-66
2021/11/27 10:41:05;;;;;;;2.88;0.93;;;18.10;57.10;;;;;;5055294;28;20262;-66
2021/11/27 10:43:31;;;;;;;3.35;0.77;;;18.00;57.20;;;;;;5054594;28;20646;-65
2021/11/27 10:45:57;;;;;;;4.18;0.80;;;18.00;57.20;;;;;;5053066;28;20248;-65
2021/11/27 10:48:24;;;;;;;2.55;1.08;;;18.00;57.30;;;;;;5054855;28;20250;-65
2021/11/27 10:51:00;;;;;;;4.03;0.95;;;17.90;57.40;;;;;;5054457;28;20179;-67
2021/11/27 10:53:28;;;;;;;6.00;1.17;;;17.90;57.50;;;;;;5054240;28;20185;-69
2021/11/27 10:55:53;;;;;;;5.00;0.70;;;17.80;57.60;;;;;;5054560;28;20206;-67
2021/11/27 10:58:19;;;;;;;2.20;0.80;;;17.80;58.30;;;;;;5053324;28;20175;-67
2021/11/27 11:00:50;;;;;;;0.70;0.70;;;17.80;57.60;;;;;;5053762;28;20182;-68
2021/11/27 11:03:29;;;;;;;1.35;0.80;;;17.80;57.60;;;;;;5054648;28;20486;-69
2021/11/27 11:05:56;;;;;;;4.00;1.05;;;17.80;57.60;;;;;;5054891;28;20175;-74
2021/11/27 11:08:38;;;;;;;3.10;0.70;;;17.90;57.60;;;;;;5053966;28;20213;-69
2021/11/27 11:11:24;;;;;;;5.32;0.90;;;17.90;57.60;;;;;;5054597;28;20175;-67
2021/11/27 11:13:55;;;;;;;2.40;0.85;;;17.80;57.50;;;;;;5053268;28;20636;-67
2021/11/27 11:16:26;;;;;;;2.75;0.82;;;17.70;57.70;;;;;;5053549;28;20211;-68
2021/11/27 11:18:52;;;;;;;4.15;1.17;;;17.70;57.80;;;;;;5053946;28;20183;-68
2021/11/27 11:21:18;;;;;;;2.85;1.05;;;17.60;57.90;;;;;;5052410;28;20171;-67
2021/11/27 11:23:44;;;;;;;3.00;1.10;;;17.60;57.90;;;;;;5054545;28;20175;-66
2021/11/27 11:26:13;;;;;;;3.83;1.00;;;17.60;57.90;;;;;;5054052;28;20634;-67
2021/11/27 11:28:40;;;;;;;2.15;0.90;;;17.70;57.90;;;;;;5052924;28;20202;-66
2021/11/27 11:31:08;;;;;;;3.03;1.00;;;17.70;57.80;;;;;;5054044;28;20167;-65
2021/11/27 11:33:38;;;;;;;3.00;1.00;;;17.70;57.80;;;;;;5053713;28;20637;-69
2021/11/27 11:36:05;;;;;;;2.20;1.17;;;17.70;57.80;;;;;;5053105;28;20619;-71
2021/11/27 11:38:30;;;;;;;2.05;1.02;;;17.70;57.70;;;;;;5053692;28;20179;-72
2021/11/27 11:40:56;;;;;;;6.25;1.58;;;17.60;57.70;;;;;;5053753;28;20179;-66
2021/11/27 11:43:21;;;;;;;5.43;1.60;;;17.60;57.80;;;;;;5052929;28;20636;-66
2021/11/27 11:45:47;;;;;;;2.83;1.52;;;17.50;57.80;;;;;;5053824;28;20178;-67
2021/11/27 11:48:18;;;;;;;2.60;1.40;;;17.50;57.70;;;;;;5053367;28;20604;-68
2021/11/27 11:50:44;;;;;;;3.08;1.50;;;17.50;57.70;;;;;;5052911;28;20262;-67
2021/11/27 11:53:46;;;;;;;5.07;1.58;;;17.50;57.70;;;;;;5052242;28;20254;-67
2021/11/27 11:56:12;;;;;;;3.28;1.42;;;17.60;57.80;;;;;;5030723;28;20624;-67
2021/11/27 11:58:41;;;;;;;2.00;1.25;;;17.60;57.80;;;;;;5048916;28;20226;-67
2021/11/27 12:01:21;;;;;;;4.13;1.70;;;17.60;57.60;;;;;;5053528;28;20320;-67
2021/11/27 12:03:49;;;;;;;3.90;1.55;;;17.60;58.20;;;;;;5051068;28;20175;-68
2021/11/27 12:06:27;;;;;;;4.50;1.58;;;17.70;57.60;;;;;;5053625;28;20508;-68
2021/11/27 12:08:52;;;;;;;3.30;1.88;;;17.70;57.60;;;;;;5053326;28;20202;-68
2021/11/27 12:11:46;;;;;;;3.65;1.80;;;17.70;57.60;;;;;;5052539;28;20606;-67
2021/11/27 12:14:21;;;;;;;2.33;1.55;;;17.60;57.60;;;;;;5053073;28;20176;-67
2021/11/27 12:17:14;;;;;;;3.58;1.65;;;17.60;57.70;;;;;;5052246;28;20210;-68
2021/11/27 12:19:50;;;;;;;4.45;1.90;;;17.60;57.80;;;;;;5052919;28;20182;-67
2021/11/27 12:22:27;;;;;;;4.80;2.30;;;17.70;57.60;;;;;;5053134;28;20175;-67
2021/11/27 12:25:28;;;;;;;3.35;2.72;;;17.60;57.30;;;;;;5051881;28;20203;-68
2021/11/27 12:27:59;;;;;;;6.18;2.78;;;17.60;57.20;;;;;;5051529;28;20206;-65
2021/11/27 12:30:26;;;;;;;6.10;2.28;;;17.60;57.10;;;;;;5056737;28;20168;-65
2021/11/27 12:32:51;;;;;;;3.80;2.20;;;17.60;57.00;;;;;;5056095;28;20661;-65
2021/11/27 12:35:26;;;;;;;4.85;2.30;;;17.70;57.00;;;;;;5070583;28;20174;-68
2021/11/27 12:38:33;;;;;;;7.38;2.38;;;17.80;56.90;;;;;;5067532;28;20732;-66
2021/11/27 12:40:59;;;;;;;3.03;2.03;;;17.90;56.90;;;;;;5051621;28;20221;-66
2021/11/27 12:43:24;;;;;;;5.13;2.10;;;17.90;57.00;;;;;;5051116;28;20601;-66
2021/11/27 12:45:52;;;;;;;4.32;2.40;;;18.00;57.00;;;;;;5051589;28;20183;-66
2021/11/27 12:48:30;;;;;;;7.47;2.72;;;18.10;56.90;;;;;;5072261;28;20218;-66
2021/11/27 12:51:21;;;;;;;4.22;2.50;;;18.20;56.60;;;;;;5072796;28;20214;-65